Time;durP1;ratioP1;P1;durP2;ratioP2;P2;SDS_P1;SDS_P2;PMS_P1;PMS_P2;Temp;Humidity;BMP_temperature;BMP_pressure;BME280_temperature;BME280_humidity;BME280_pressure;Samples;Min_cycle;Max_cycle;Signal;HPM_P1;HPM_P2
2021/04/12 00:00:36;;;;;;;35.25;21.82;;;;;;;14.99;28.40;101400.53;1727632;80;21165;-75
2021/04/12 00:03:18;;;;;;;35.58;23.02;;;;;;;14.99;28.52;101403.23;1765102;80;21221;-74
2021/04/12 00:06:12;;;;;;;33.85;21.60;;;;;;;14.97;28.62;101401.19;1780930;80;21165;-75
2021/04/12 00:08:57;;;;;;;35.17;20.50;;;;;;;14.96;28.65;101402.20;1781171;80;21200;-76
2021/04/12 00:11:49;;;;;;;30.40;18.27;;;;;;;14.95;28.76;101396.48;1781989;80;21181;-75
2021/04/12 00:14:31;;;;;;;35.28;21.97;;;;;;;14.92;28.80;101388.19;1781307;80;21903;-77
2021/04/12 00:17:10;;;;;;;34.75;22.40;;;;;;;14.91;29.12;101388.37;1781504;80;21160;-78
2021/04/12 00:19:56;;;;;;;35.73;23.18;;;;;;;14.91;29.28;101385.67;1781464;80;21600;-77
2021/04/12 00:22:40;;;;;;;40.12;22.13;;;;;;;14.90;29.45;101382.13;1782388;80;21078;-77
2021/04/12 00:25:27;;;;;;;34.00;21.73;;;;;;;14.91;29.55;101384.31;1782240;80;21157;-76
2021/04/12 00:27:58;;;;;;;37.80;23.00;;;;;;;14.90;29.56;101388.03;1782208;80;21069;-76
2021/04/12 00:30:40;;;;;;;36.17;23.02;;;;;;;14.90;29.55;101376.73;1782172;80;21648;-75
2021/04/12 00:33:27;;;;;;;36.03;23.80;;;;;;;14.90;29.50;101378.08;1782315;80;21090;-76
2021/04/12 00:36:17;;;;;;;40.90;22.90;;;;;;;14.91;29.48;101388.37;1782521;80;21062;-77
2021/04/12 00:39:08;;;;;;;37.60;21.90;;;;;;;14.92;29.48;101380.61;1782277;80;20948;-75
2021/04/12 00:41:59;;;;;;;37.10;23.27;;;;;;;14.90;29.56;101381.29;1782185;80;21117;-76
2021/04/12 00:45:00;;;;;;;33.98;21.80;;;;;;;14.88;29.64;101374.69;1782160;80;21655;-76
2021/04/12 00:47:42;;;;;;;32.15;21.55;;;;;;;14.86;29.53;101366.44;1782385;80;21482;-76
2021/04/12 00:50:50;;;;;;;36.23;22.75;;;;;;;14.83;29.32;101358.66;1782178;80;21121;-76
2021/04/12 00:53:39;;;;;;;37.23;22.48;;;;;;;14.82;29.38;101356.98;1782390;80;21612;-76
2021/04/12 00:56:18;;;;;;;34.15;22.80;;;;;;;14.81;29.49;101352.60;1781792;80;21090;-77
2021/04/12 00:59:08;;;;;;;36.05;23.27;;;;;;;14.82;29.61;101352.42;1782186;80;21537;-76
2021/04/12 01:01:50;;;;;;;37.03;22.07;;;;;;;14.83;29.63;101345.17;1782165;80;21050;-75
2021/04/12 01:04:48;;;;;;;34.92;22.42;;;;;;;14.82;29.61;101341.64;1781637;80;21145;-75
2021/04/12 01:07:52;;;;;;;36.60;23.12;;;;;;;14.81;29.72;101331.03;1782395;80;21066;-77
2021/04/12 01:11:02;;;;;;;38.95;21.97;;;;;;;14.82;29.68;101338.10;1782194;80;21569;-76
2021/04/12 01:14:09;;;;;;;39.60;22.32;;;;;;;14.83;29.64;101331.19;1782187;80;21157;-75
2021/04/12 01:17:14;;;;;;;36.65;24.35;;;;;;;14.86;29.83;101331.38;1782169;80;21141;-75
2021/04/12 01:20:06;;;;;;;37.23;22.30;;;;;;;14.85;29.92;101337.75;1782072;80;21102;-76
2021/04/12 01:23:17;;;;;;;37.38;23.98;;;;;;;14.84;30.04;101326.62;1782396;80;21485;-75
2021/04/12 01:26:26;;;;;;;35.88;22.95;;;;;;;14.83;30.06;101319.55;1782324;80;21517;-75
2021/04/12 01:29:39;;;;;;;42.88;24.30;;;;;;;14.80;30.04;101323.41;1781574;80;21114;-76
2021/04/12 01:32:31;;;;;;;47.23;24.10;;;;;;;14.72;30.16;101324.77;1782234;80;21070;-76
2021/04/12 01:35:39;;;;;;;39.48;23.25;;;;;;;14.70;30.32;101311.93;1782141;80;21129;-76
2021/04/12 01:38:30;;;;;;;41.68;23.30;;;;;;;14.70;30.46;101313.27;1782219;80;21599;-76
2021/04/12 01:41:15;;;;;;;43.92;22.90;;;;;;;14.68;30.62;101309.41;1782214;80;21177;-76
2021/04/12 01:44:20;;;;;;;41.90;22.82;;;;;;;14.67;30.57;101304.16;1782167;80;21130;-76
2021/04/12 01:47:15;;;;;;;36.48;22.40;;;;;;;14.65;30.73;101294.89;1782196;80;21058;-76
2021/04/12 01:50:01;;;;;;;33.10;21.40;;;;;;;14.65;30.86;101290.01;1782210;80;21054;-76
2021/04/12 01:53:05;;;;;;;36.40;21.65;;;;;;;14.64;30.86;101292.38;1781206;80;21508;-75
2021/04/12 01:56:24;;;;;;;47.67;23.18;;;;;;;14.63;30.98;101290.19;1782315;80;21125;-75
2021/04/12 01:59:14;;;;;;;35.68;24.02;;;;;;;14.60;31.08;101291.84;1781564;80;21585;-75
2021/04/12 02:01:58;;;;;;;42.30;24.90;;;;;;;14.59;31.08;101290.67;1782189;80;21181;-76
2021/04/12 02:04:36;;;;;;;42.80;24.20;;;;;;;14.59;31.04;101288.82;1782230;80;21469;-75
2021/04/12 02:07:29;;;;;;;39.63;25.23;;;;;;;14.57;30.89;101285.42;1781644;80;21138;-76
2021/04/12 02:10:42;;;;;;;38.83;23.18;;;;;;;14.58;30.91;101283.09;1782154;80;21152;-76
2021/04/12 02:13:37;;;;;;;40.48;24.10;;;;;;;14.57;30.96;101278.69;1782366;80;21141;-77
2021/04/12 02:16:45;;;;;;;35.33;22.52;;;;;;;14.57;31.09;101283.23;1769913;80;21089;-76
2021/04/12 02:19:25;;;;;;;37.67;23.00;;;;;;;14.57;31.60;101284.08;1772019;80;21572;-76
2021/04/12 02:22:10;;;;;;;38.00;24.02;;;;;;;14.57;32.18;101275.99;1782125;80;21144;-75
2021/04/12 02:24:45;;;;;;;36.53;23.40;;;;;;;14.56;32.38;101280.20;1782294;80;21060;-75
2021/04/12 02:27:20;;;;;;;43.60;23.85;;;;;;;14.52;32.35;101271.59;1782186;80;21145;-76
2021/04/12 02:30:07;;;;;;;40.30;23.15;;;;;;;14.49;32.31;101269.25;1782199;80;21053;-76
2021/04/12 02:33:00;;;;;;;34.92;24.10;;;;;;;14.46;32.18;101270.38;1781058;80;21073;-76
2021/04/12 02:35:47;;;;;;;38.30;23.62;;;;;;;14.42;32.12;101265.48;1782268;80;21569;-76
2021/04/12 02:38:25;;;;;;;34.43;23.32;;;;;;;14.37;32.12;101274.56;1782135;80;21145;-78
2021/04/12 02:41:18;;;;;;;36.93;24.35;;;;;;;14.33;32.05;101280.77;1730224;80;21202;-75
2021/04/12 02:44:19;;;;;;;39.08;23.77;;;;;;;14.34;32.14;101282.45;1817197;79;22846;-76
2021/04/12 02:47:23;;;;;;;37.53;23.35;;;;;;;14.29;32.17;101282.09;1783035;80;21112;-76
2021/04/12 02:50:07;;;;;;;35.78;23.00;;;;;;;14.27;32.24;101281.94;1786051;80;21660;-76
2021/04/12 02:53:07;;;;;;;37.20;23.80;;;;;;;14.23;32.29;101284.11;1780679;80;21190;-76
2021/04/12 02:56:03;;;;;;;38.48;23.60;;;;;;;14.18;32.37;101277.02;1785164;80;21181;-74
2021/04/12 02:58:59;;;;;;;44.15;23.95;;;;;;;14.16;32.41;101274.46;1781701;80;21159;-76
2021/04/12 03:02:07;;;;;;;35.52;24.00;;;;;;;14.14;32.45;101270.26;1785258;80;21213;-76
2021/04/12 03:05:09;;;;;;;35.80;23.30;;;;;;;14.14;32.64;101275.64;1781878;80;21171;-75
2021/04/12 03:08:09;;;;;;;38.80;23.40;;;;;;;14.13;32.88;101278.01;1786571;80;21556;-76
2021/04/12 03:11:06;;;;;;;38.17;23.70;;;;;;;14.10;32.97;101271.08;1783491;80;21119;-75
2021/04/12 03:13:46;;;;;;;37.60;23.77;;;;;;;14.09;33.00;101273.44;1787496;80;21078;-76
2021/04/12 03:16:28;;;;;;;38.80;24.85;;;;;;;14.06;33.01;101272.40;1782930;80;21067;-77
2021/04/12 03:19:24;;;;;;;41.00;23.60;;;;;;;14.06;33.09;101267.02;1756559;80;21240;-77
2021/04/12 03:22:30;;;;;;;42.23;25.48;;;;;;;14.04;33.11;101264.16;1782627;80;21226;-76
2021/04/12 03:25:16;;;;;;;35.70;23.22;;;;;;;14.03;33.27;101259.25;1753329;81;21252;-76
2021/04/12 03:27:55;;;;;;;37.73;23.35;;;;;;;14.03;33.36;101260.59;1744574;82;21645;-76
2021/04/12 03:30:47;;;;;;;51.70;25.05;;;;;;;14.02;33.49;101258.91;1749702;80;21594;-74
2021/04/12 03:33:48;;;;;;;41.18;25.40;;;;;;;14.02;33.63;101253.52;1781257;78;21749;-75
2021/04/12 03:36:42;;;;;;;43.38;25.70;;;;;;;14.00;33.74;101257.40;1780970;80;21220;-75
2021/04/12 03:39:25;;;;;;;44.75;25.17;;;;;;;14.00;33.83;101248.81;1758481;80;21165;-75
2021/04/12 03:42:26;;;;;;;44.33;26.00;;;;;;;13.98;34.01;101253.50;1752535;81;21153;-77
2021/04/12 03:45:11;;;;;;;41.13;25.48;;;;;;;13.99;34.11;101252.52;1787305;79;21197;-76
2021/04/12 03:48:26;;;;;;;40.95;24.75;;;;;;;13.99;34.18;101250.30;1770286;80;21240;-75
2021/04/12 03:51:22;;;;;;;39.25;24.72;;;;;;;13.98;34.19;101260.23;1806620;79;21227;-75
2021/04/12 03:54:21;;;;;;;39.88;24.70;;;;;;;13.97;34.23;101261.24;1785941;80;21106;-76
2021/04/12 03:57:15;;;;;;;40.48;24.52;;;;;;;13.96;34.27;101270.34;1785199;80;21112;-76
2021/04/12 04:00:14;;;;;;;44.30;26.75;;;;;;;13.95;34.32;101266.80;1812209;79;21173;-76
2021/04/12 04:02:47;;;;;;;39.33;24.60;;;;;;;13.95;34.32;101265.96;1783967;80;21767;-77
2021/04/12 04:05:34;;;;;;;43.17;26.33;;;;;;;13.94;34.21;101259.73;1810424;79;21205;-75
2021/04/12 04:08:49;;;;;;;44.63;25.55;;;;;;;13.92;34.03;101252.80;1785739;80;21205;-75
2021/04/12 04:11:49;;;;;;;38.58;24.52;;;;;;;13.94;34.10;101246.74;1786258;80;21161;-76
2021/04/12 04:14:55;;;;;;;40.80;24.00;;;;;;;13.92;34.29;101245.56;1806150;79;21176;-75
2021/04/12 04:18:08;;;;;;;40.45;24.52;;;;;;;13.96;34.34;101250.14;1811988;78;21156;-75
2021/04/12 04:20:56;;;;;;;42.65;24.55;;;;;;;13.99;34.47;101245.78;1796006;79;21179;-75
2021/04/12 04:23:32;;;;;;;37.88;24.90;;;;;;;13.98;34.55;101244.58;1783329;79;20985;-75
2021/04/12 04:26:39;;;;;;;41.55;27.07;;;;;;;13.97;34.50;101235.66;1765939;80;21414;-76
2021/04/12 04:29:51;;;;;;;40.45;26.42;;;;;;;13.98;34.46;101241.88;1763231;80;21227;-75
2021/04/12 04:32:52;;;;;;;41.37;24.82;;;;;;;13.86;34.66;101245.38;1748090;80;21232;-76
2021/04/12 04:35:55;;;;;;;39.23;25.75;;;;;;;13.83;34.79;101241.14;1779689;79;21340;-74
2021/04/12 04:39:04;;;;;;;37.93;26.15;;;;;;;13.81;35.04;101237.78;1782006;79;21173;-74
2021/04/12 04:42:20;;;;;;;43.80;27.87;;;;;;;13.78;35.15;101237.25;1754863;80;21704;-75
2021/04/12 04:45:05;;;;;;;40.28;26.50;;;;;;;13.75;35.13;101231.67;1762605;80;21218;-74
2021/04/12 04:47:45;;;;;;;46.25;27.70;;;;;;;13.73;35.16;101229.66;1792712;79;21198;-77
2021/04/12 04:50:46;;;;;;;43.00;27.75;;;;;;;13.73;35.10;101230.16;1773516;80;21218;-76
2021/04/12 04:53:47;;;;;;;42.00;26.68;;;;;;;13.71;35.10;101232.98;1753708;80;21217;-75
2021/04/12 04:56:35;;;;;;;37.67;25.12;;;;;;;13.69;35.10;101231.81;1771771;80;21184;-75
2021/04/12 04:59:38;;;;;;;45.70;27.15;;;;;;;13.67;35.03;101227.11;1774688;80;21166;-75
2021/04/12 05:02:14;;;;;;;41.53;26.65;;;;;;;13.64;34.83;101226.06;1781115;79;21238;-76
2021/04/12 05:04:53;;;;;;;41.40;26.52;;;;;;;13.63;34.94;101217.66;1779446;79;21725;-75
2021/04/12 05:07:44;;;;;;;40.90;27.60;;;;;;;13.64;34.91;101219.84;1759751;80;21142;-74
2021/04/12 05:10:23;;;;;;;40.70;25.95;;;;;;;13.61;34.90;101220.16;1771849;80;20971;-75
2021/04/12 05:12:56;;;;;;;41.77;25.05;;;;;;;13.60;35.04;101215.78;1786000;79;21122;-74
2021/04/12 05:15:45;;;;;;;42.05;25.70;;;;;;;13.60;35.15;101212.58;1746788;82;21139;-76
2021/04/12 05:18:27;;;;;;;46.48;27.82;;;;;;;13.59;34.95;101213.59;1752778;80;21146;-75
2021/04/12 05:21:30;;;;;;;46.20;26.62;;;;;;;13.69;34.66;101208.09;1751925;80;21188;-75
2021/04/12 05:24:22;;;;;;;41.48;25.80;;;;;;;13.77;34.81;101220.25;1756701;80;21207;-73
2021/04/12 05:27:16;;;;;;;45.30;25.88;;;;;;;13.85;34.70;101225.69;1756501;80;21102;-73
2021/04/12 05:30:06;;;;;;;38.13;24.77;;;;;;;13.86;34.88;101231.91;1763117;80;21145;-75
2021/04/12 05:33:05;;;;;;;44.73;25.65;;;;;;;13.80;35.28;101238.77;1773513;79;21164;-75
2021/04/12 05:36:16;;;;;;;44.38;25.70;;;;;;;13.72;35.66;101241.44;1723024;81;21144;-75
2021/04/12 05:39:21;;;;;;;41.63;26.37;;;;;;;13.78;35.94;101238.09;1688395;82;21207;-74
2021/04/12 05:42:18;;;;;;;40.75;27.67;;;;;;;13.74;36.28;101241.27;1752183;81;21087;-75
2021/04/12 05:45:09;;;;;;;41.00;26.95;;;;;;;13.72;36.97;101244.13;1751897;81;21156;-75
2021/04/12 05:48:00;;;;;;;42.85;28.42;;;;;;;13.74;37.39;101249.34;1747842;81;21132;-75
2021/04/12 05:50:57;;;;;;;51.37;32.78;;;;;;;13.70;37.63;101247.46;1752691;81;21116;-74
2021/04/12 05:53:53;;;;;;;57.38;32.45;;;;;;;13.68;38.39;101248.98;1751348;81;21154;-74
2021/04/12 05:56:33;;;;;;;45.35;28.17;;;;;;;13.64;38.46;101245.42;1752204;81;21085;-74
2021/04/12 05:59:32;;;;;;;41.20;27.67;;;;;;;13.61;38.44;101247.91;1698984;84;21161;-73
2021/04/12 06:02:42;;;;;;;43.68;28.87;;;;;;;13.59;38.68;101252.62;1694420;84;21157;-74
2021/04/12 06:05:29;;;;;;;42.40;28.50;;;;;;;13.58;39.01;101253.63;1698170;83;21452;-73
2021/04/12 06:08:23;;;;;;;45.45;28.15;;;;;;;13.70;39.15;101248.30;1724476;81;21157;-75
2021/04/12 06:11:13;;;;;;;49.42;28.80;;;;;;;13.55;39.48;101240.48;1722805;83;21120;-75
2021/04/12 06:14:19;;;;;;;43.55;28.35;;;;;;;13.51;39.85;101229.69;1749467;81;21123;-75
2021/04/12 06:17:35;;;;;;;42.48;28.27;;;;;;;13.52;40.40;101232.71;1751136;81;21040;-77
2021/04/12 06:20:43;;;;;;;37.65;25.12;;;;;;;13.51;40.67;101228.34;1751279;81;21158;-77
2021/04/12 06:23:56;;;;;;;34.50;22.27;;;;;;;13.51;40.68;101226.99;1753572;80;21500;-78
2021/04/12 06:26:59;;;;;;;33.40;22.13;;;;;;;13.48;40.83;101227.30;1747160;80;21237;-77
2021/04/12 06:29:51;;;;;;;35.08;23.47;;;;;;;13.49;40.96;101226.32;1744752;80;21216;-76
2021/04/12 06:32:45;;;;;;;35.30;22.35;;;;;;;13.50;41.09;101213.70;1749468;80;21706;-76
2021/04/12 06:35:34;;;;;;;34.13;23.95;;;;;;;13.49;41.24;101207.48;1750649;81;21278;-75
2021/04/12 06:38:22;;;;;;;38.55;24.85;;;;;;;13.57;41.51;101196.73;1750549;80;21184;-76
2021/04/12 06:41:17;;;;;;;38.17;24.80;;;;;;;13.56;41.57;101193.71;1689846;84;21191;-75
2021/04/12 06:44:42;;;;;;;55.12;30.57;;;;;;;13.57;41.73;101180.59;1682749;84;21748;-75
2021/04/12 06:47:27;;;;;;;53.60;29.63;;;;;;;13.59;42.44;101183.98;1717806;83;21236;-75
2021/04/12 06:50:19;;;;;;;38.92;24.10;;;;;;;13.61;42.64;101194.07;1732591;81;21192;-74
2021/04/12 06:53:14;;;;;;;44.63;26.57;;;;;;;13.59;42.60;101211.41;1734724;81;21359;-76
2021/04/12 06:56:01;;;;;;;40.33;27.35;;;;;;;13.60;42.50;101217.96;1720488;81;21575;-76
2021/04/12 06:59:25;;;;;;;38.63;25.48;;;;;;;13.63;42.79;101218.16;1702068;81;21247;-75
2021/04/12 07:02:15;;;;;;;36.15;26.27;;;;;;;13.65;43.21;101227.75;1701613;81;21120;-74
2021/04/12 07:05:12;;;;;;;41.88;25.88;;;;;;;13.66;43.01;101229.42;1678324;81;21121;-76
2021/04/12 07:08:26;;;;;;;42.30;27.25;;;;;;;13.66;43.12;101228.08;1680767;82;21160;-75
2021/04/12 07:11:11;;;;;;;61.08;35.45;;;;;;;13.61;43.51;101218.30;1641788;83;21145;-75
2021/04/12 07:14:16;;;;;;;67.12;38.60;;;;;;;13.64;44.00;101203.19;1725919;82;21460;-78
2021/04/12 07:17:22;;;;;;;53.13;30.90;;;;;;;13.64;44.17;101219.34;1709707;82;21144;-75
2021/04/12 07:20:04;;;;;;;65.85;34.65;;;;;;;13.64;43.67;101189.73;1720316;81;21608;-74
2021/04/12 07:22:57;;;;;;;51.13;29.72;;;;;;;13.64;44.31;101168.19;1724094;82;21171;-75
2021/04/12 07:26:02;;;;;;;55.83;31.40;;;;;;;13.62;44.73;101208.38;1681856;83;21207;-74
2021/04/12 07:29:01;;;;;;;48.80;29.98;;;;;;;13.44;44.81;101198.54;1709424;82;21157;-75
2021/04/12 07:32:03;;;;;;;55.45;32.60;;;;;;;13.43;44.79;101201.37;1708850;82;21029;-74
2021/04/12 07:35:16;;;;;;;52.30;32.55;;;;;;;13.43;44.51;101202.20;1697976;83;21626;-74
2021/04/12 07:38:15;;;;;;;47.80;31.23;;;;;;;13.42;44.60;101190.27;1725152;81;21136;-74
2021/04/12 07:41:31;;;;;;;54.18;36.30;;;;;;;13.43;44.62;101194.64;1732119;81;21132;-73
2021/04/12 07:44:07;;;;;;;42.43;27.37;;;;;;;13.44;44.92;101196.32;1704300;81;21133;-73
2021/04/12 07:46:59;;;;;;;37.03;26.30;;;;;;;13.44;45.12;101195.84;1732999;81;21242;-75
2021/04/12 07:50:14;;;;;;;35.98;26.00;;;;;;;13.47;44.94;101191.14;1722322;81;21184;-76
2021/04/12 07:53:31;;;;;;;38.35;25.30;;;;;;;13.57;45.02;101182.44;1783935;79;22747;-75
2021/04/12 07:56:40;;;;;;;39.00;26.47;;;;;;;13.57;45.02;101190.01;1796102;77;21128;-74
2021/04/12 07:59:44;;;;;;;35.85;24.77;;;;;;;13.61;45.05;101191.89;1800301;77;21128;-76
2021/04/12 08:03:18;;;;;;;35.50;24.87;;;;;;;13.65;45.00;101186.02;1784430;77;21457;-73
2021/04/12 08:06:33;;;;;;;35.83;24.15;;;;;;;13.73;45.11;101189.77;1795482;77;21587;-76
2021/04/12 08:09:29;;;;;;;33.85;24.12;;;;;;;13.76;45.17;101185.39;1770699;79;21149;-75
2021/04/12 08:12:43;;;;;;;36.68;25.12;;;;;;;13.79;45.03;101169.77;1768886;79;20974;-73
2021/04/12 08:15:44;;;;;;;34.95;23.87;;;;;;;13.85;45.20;101162.41;1773944;79;21102;-75
2021/04/12 08:18:34;;;;;;;35.30;24.77;;;;;;;13.92;45.34;101159.38;1769826;79;21161;-77
2021/04/12 08:21:54;;;;;;;40.63;24.70;;;;;;;13.99;45.52;101150.64;1797491;77;21711;-77
2021/04/12 08:24:46;;;;;;;35.88;25.25;;;;;;;14.04;45.58;101152.37;1798859;78;21224;-78
2021/04/12 08:27:36;;;;;;;37.93;24.77;;;;;;;14.07;45.61;101158.25;1771517;79;21698;-76
2021/04/12 08:30:42;;;;;;;37.83;24.98;;;;;;;14.08;45.33;101149.66;1793787;78;21173;-75
2021/04/12 08:33:41;;;;;;;34.27;25.10;;;;;;;14.10;45.48;101148.50;1796632;77;21175;-76
2021/04/12 08:36:47;;;;;;;34.35;24.15;;;;;;;14.14;45.34;101147.67;1799451;77;21222;-75
2021/04/12 08:39:33;;;;;;;37.35;24.72;;;;;;;14.28;45.03;101148.88;1791757;77;21694;-78
2021/04/12 08:42:24;;;;;;;36.77;25.02;;;;;;;14.66;44.41;101144.23;1792604;77;21128;-75
2021/04/12 08:45:03;;;;;;;34.13;24.15;;;;;;;14.31;45.08;101148.56;1797462;77;21153;-74
2021/04/12 08:48:13;;;;;;;39.83;25.08;;;;;;;14.29;45.03;101146.02;1770159;79;21113;-76
2021/04/12 08:51:15;;;;;;;37.58;25.35;;;;;;;14.31;44.54;101137.78;1763739;79;21124;-79
2021/04/12 08:54:31;;;;;;;35.80;25.23;;;;;;;14.27;44.67;101135.08;1774423;79;21116;-76
2021/04/12 08:57:57;;;;;;;35.63;25.45;;;;;;;14.28;44.98;101135.41;1770954;79;21121;-76
2021/04/12 09:01:09;;;;;;;39.88;25.08;;;;;;;14.30;44.90;101121.25;1772374;79;21133;-76
2021/04/12 09:04:09;;;;;;;38.15;26.05;;;;;;;14.31;44.86;101122.96;1776765;79;21147;-77
2021/04/12 09:07:17;;;;;;;35.63;25.17;;;;;;;14.35;45.06;101122.94;1800472;77;21101;-77
2021/04/12 09:10:09;;;;;;;35.05;25.75;;;;;;;14.38;45.11;101126.15;1796932;77;21117;-75
2021/04/12 09:12:46;;;;;;;37.53;24.98;;;;;;;14.40;45.12;101120.11;1775617;77;21146;-74
2021/04/12 09:15:48;;;;;;;36.20;25.10;;;;;;;14.45;45.15;101123.65;1803516;77;21133;-76
2021/04/12 09:19:02;;;;;;;38.08;24.70;;;;;;;14.48;45.20;101116.59;1769216;79;21146;-75
2021/04/12 09:21:59;;;;;;;37.17;26.00;;;;;;;14.50;45.12;101118.63;1767739;79;21150;-76
2021/04/12 09:25:10;;;;;;;33.78;24.05;;;;;;;14.54;45.36;101120.48;1762985;79;21130;-75
2021/04/12 09:27:56;;;;;;;38.17;24.23;;;;;;;14.56;45.34;101119.29;1740923;80;21558;-75
2021/04/12 09:31:14;;;;;;;33.95;24.12;;;;;;;14.59;45.24;101113.58;1688011;80;21277;-78
2021/04/12 09:34:11;;;;;;;36.80;24.80;;;;;;;14.60;45.23;101109.02;1761377;79;21193;-80
2021/04/12 09:37:04;;;;;;;34.13;23.40;;;;;;;14.61;45.28;101112.88;1796298;78;21688;-80
2021/04/12 09:39:52;;;;;;;31.57;22.45;;;;;;;14.63;45.18;101114.09;1765440;79;21217;-76
2021/04/12 09:42:36;;;;;;;32.95;23.92;;;;;;;14.66;45.25;101110.52;1759443;79;21201;-77
2021/04/12 09:45:32;;;;;;;36.58;24.55;;;;;;;14.69;45.50;101117.45;1768514;79;21211;-81
2021/04/12 09:48:59;;;;;;;38.50;26.37;;;;;;;14.71;45.53;101110.85;1761141;80;21696;-77
2021/04/12 09:52:10;;;;;;;35.17;23.90;;;;;;;14.74;45.38;101107.50;1765769;79;21137;-80
2021/04/12 09:55:38;;;;;;;32.00;23.60;;;;;;;14.80;45.26;101098.72;1811382;77;24077;-78
2021/04/12 09:58:33;;;;;;;34.98;25.10;;;;;;;14.75;45.28;101095.70;1823492;77;21185;-82
2021/04/12 10:01:13;;;;;;;37.15;26.42;;;;;;;14.77;45.26;101093.69;1834475;77;21178;-80
2021/04/12 10:04:27;;;;;;;37.78;25.60;;;;;;;14.78;45.14;101092.16;1845923;75;21216;-78
2021/04/12 10:07:28;;;;;;;37.55;22.77;;;;;;;14.79;45.16;101094.34;1846705;77;21479;-77
2021/04/12 10:10:09;;;;;;;31.82;23.12;;;;;;;14.81;45.07;101097.22;1843336;77;22398;-79
2021/04/12 10:12:55;;;;;;;33.80;22.87;;;;;;;14.81;44.99;101089.64;1842340;75;21172;-75
2021/04/12 10:15:40;;;;;;;33.63;23.10;;;;;;;14.82;45.07;101096.20;1842512;77;21113;-76
2021/04/12 10:18:33;;;;;;;33.80;22.80;;;;;;;14.85;44.97;101097.70;1844699;77;21180;-77
2021/04/12 10:21:38;;;;;;;29.87;22.70;;;;;;;14.86;45.06;101097.55;1843261;77;21137;-77
2021/04/12 10:24:19;;;;;;;32.15;23.45;;;;;;;14.88;45.13;101097.37;1843408;77;22367;-76
2021/04/12 10:26:58;;;;;;;35.08;24.55;;;;;;;14.89;45.06;101097.70;1841292;77;21808;-81
2021/04/12 10:29:42;;;;;;;30.30;22.70;;;;;;;14.91;45.06;101097.03;1846404;75;20978;-77
2021/04/12 10:32:24;;;;;;;30.35;22.62;;;;;;;14.93;45.15;101092.30;1845623;77;21692;-78
2021/04/12 10:35:01;;;;;;;28.52;22.13;;;;;;;14.96;45.14;101094.66;1842928;77;20990;-77
2021/04/12 10:37:55;;;;;;;32.67;22.67;;;;;;;15.02;44.96;101093.97;1815764;77;21073;-74
2021/04/12 10:40:32;;;;;;;31.27;22.25;;;;;;;15.05;44.87;101093.63;1751316;80;21151;-77
2021/04/12 10:43:38;;;;;;;29.87;21.02;;;;;;;15.03;44.87;101098.34;1732050;80;21132;-79
2021/04/12 10:46:23;;;;;;;28.62;21.40;;;;;;;15.09;44.86;101093.63;1795833;78;22752;-78
2021/04/12 10:49:03;;;;;;;31.57;21.33;;;;;;;15.07;44.90;101101.03;1766394;79;21232;-78
2021/04/12 10:51:54;;;;;;;26.87;19.95;;;;;;;15.10;44.91;101098.00;1766412;80;21504;-81
2021/04/12 10:54:41;;;;;;;29.90;21.60;;;;;;;15.12;44.81;101097.31;1763270;80;21226;-77
2021/04/12 10:57:26;;;;;;;33.30;22.42;;;;;;;15.14;44.77;101093.95;1734187;79;22452;-77
2021/04/12 11:00:15;;;;;;;31.82;21.73;;;;;;;15.15;44.73;101094.79;1765907;79;21816;-77
2021/04/12 11:03:26;;;;;;;34.13;20.62;;;;;;;15.16;44.67;101094.61;1768224;79;21287;-78
2021/04/12 11:06:23;;;;;;;28.62;21.35;;;;;;;15.17;44.70;101097.66;1766960;79;21271;-76
2021/04/12 11:09:31;;;;;;;29.63;21.82;;;;;;;15.18;44.70;101095.30;1773036;80;21152;-77
2021/04/12 11:12:09;;;;;;;31.37;20.88;;;;;;;15.20;44.70;101095.11;1765886;80;21169;-79
2021/04/12 11:14:59;;;;;;;35.73;22.60;;;;;;;15.22;44.64;101098.50;1768360;79;21155;-80
2021/04/12 11:18:01;;;;;;;37.15;23.05;;;;;;;15.20;44.68;101087.85;1771207;79;21625;-77
2021/04/12 11:20:46;;;;;;;31.55;21.93;;;;;;;15.23;44.73;101084.81;1767079;80;21129;-80
2021/04/12 11:23:21;;;;;;;28.50;21.62;;;;;;;15.27;44.90;101087.18;1771503;79;21155;-77
2021/04/12 11:26:02;;;;;;;28.85;21.37;;;;;;;15.29;44.83;101080.58;1770451;79;21272;-79
2021/04/12 11:28:46;;;;;;;30.43;20.32;;;;;;;15.31;44.77;101086.66;1769355;79;21192;-80
2021/04/12 11:31:41;;;;;;;30.92;19.60;;;;;;;15.32;44.59;101083.45;1740228;79;21567;-80
2021/04/12 11:34:55;;;;;;;24.57;17.75;;;;;;;15.31;44.58;101086.66;1766599;79;21236;-79
2021/04/12 11:37:30;;;;;;;26.37;18.35;;;;;;;15.32;44.60;101092.38;1771307;79;21154;-79
2021/04/12 11:40:22;;;;;;;30.62;19.25;;;;;;;15.29;44.87;101090.53;1742829;80;21183;-77
2021/04/12 11:42:57;;;;;;;29.32;18.62;;;;;;;15.26;44.93;101096.27;1748296;80;21185;-76
2021/04/12 11:45:53;;;;;;;26.37;17.70;;;;;;;15.21;44.92;101088.21;1721262;79;21140;-77
2021/04/12 11:48:50;;;;;;;23.92;17.55;;;;;;;15.21;44.89;101085.99;1769766;79;21651;-79
2021/04/12 11:51:53;;;;;;;25.10;17.07;;;;;;;15.20;44.85;101088.36;1753589;79;21679;-78
2021/04/12 11:54:41;;;;;;;28.07;17.85;;;;;;;15.21;44.93;101092.26;1741380;79;21134;-75
2021/04/12 11:57:27;;;;;;;27.52;17.25;;;;;;;15.20;44.77;101093.25;1749511;79;21718;-78
2021/04/12 12:00:16;;;;;;;24.02;18.20;;;;;;;15.21;44.70;101095.44;1783301;78;21752;-76
2021/04/12 12:03:23;;;;;;;26.15;18.10;;;;;;;15.19;44.80;101088.88;1767212;79;21205;-76
2021/04/12 12:06:13;;;;;;;25.70;17.25;;;;;;;15.20;44.90;101084.31;1767650;79;21671;-76
2021/04/12 12:09:01;;;;;;;23.42;17.27;;;;;;;15.17;44.98;101082.82;1773358;79;21109;-76
2021/04/12 12:11:49;;;;;;;23.98;16.95;;;;;;;15.18;45.01;101084.50;1770243;79;21207;-76
2021/04/12 12:14:45;;;;;;;24.27;16.45;;;;;;;15.20;45.01;101079.76;1741354;79;21216;-76
2021/04/12 12:17:17;;;;;;;28.32;16.62;;;;;;;15.21;45.07;101085.99;1773988;79;21168;-77
2021/04/12 12:20:01;;;;;;;24.18;16.48;;;;;;;15.22;45.11;101086.35;1771520;79;21216;-76
2021/04/12 12:22:56;;;;;;;26.48;16.17;;;;;;;15.25;45.09;101090.03;1772456;79;21154;-79
2021/04/12 12:25:47;;;;;;;23.98;16.35;;;;;;;15.28;44.97;101084.81;1770610;79;21645;-77
2021/04/12 12:28:43;;;;;;;29.77;16.95;;;;;;;15.29;44.97;101085.14;1768864;79;21117;-80
2021/04/12 12:31:33;;;;;;;22.15;16.30;;;;;;;15.30;45.04;101080.06;1769664;79;21263;-79
2021/04/12 12:34:28;;;;;;;26.82;16.75;;;;;;;15.33;45.11;101080.56;1765426;79;21157;-77
2021/04/12 12:37:13;;;;;;;24.27;16.05;;;;;;;15.37;45.03;101083.25;1767790;79;21178;-79
2021/04/12 12:39:53;;;;;;;26.40;16.30;;;;;;;15.41;45.12;101078.36;1764186;80;21090;-78
2021/04/12 12:42:38;;;;;;;23.62;16.90;;;;;;;15.45;45.30;101076.99;1765303;79;20987;-79
2021/04/12 12:45:13;;;;;;;25.60;17.32;;;;;;;15.48;45.40;101072.57;1761030;80;21128;-75
2021/04/12 12:47:50;;;;;;;24.45;16.25;;;;;;;15.52;45.39;101074.42;1766624;80;21547;-77
2021/04/12 12:50:31;;;;;;;26.35;16.52;;;;;;;15.55;45.17;101076.27;1746893;80;21787;-77
2021/04/12 12:53:16;;;;;;;24.75;16.42;;;;;;;15.57;44.98;101072.87;1790359;78;21771;-77
2021/04/12 12:56:06;;;;;;;24.55;15.83;;;;;;;15.60;44.79;101072.53;1792065;79;21182;-81
2021/04/12 12:58:33;;;;;;;25.55;16.42;;;;;;;15.62;44.91;101067.78;1785577;78;21506;-77
2021/04/12 13:01:02;;;;;;;25.75;17.05;;;;;;;15.65;44.93;101075.57;1789776;78;21196;-77
2021/04/12 13:03:38;;;;;;;29.82;16.20;;;;;;;15.67;44.70;101070.02;1790319;78;21150;-80
2021/04/12 13:06:25;;;;;;;26.42;16.62;;;;;;;15.66;44.86;101071.84;1779310;78;21145;-79
2021/04/12 13:09:14;;;;;;;22.55;15.70;;;;;;;15.70;44.88;101075.04;1791158;78;20991;-77
2021/04/12 13:11:45;;;;;;;31.48;18.75;;;;;;;15.72;44.89;101079.27;1792274;78;21164;-78